createdAt,value
2023-01-28T00:01:22.464Z,1.42
2023-01-28T00:03:51.337Z,1.00
2023-01-28T00:06:19.187Z,1.10
2023-01-28T00:08:46.153Z,1.33
2023-01-28T00:11:14.007Z,1.15
2023-01-28T00:13:41.056Z,0.80
2023-01-28T00:16:09.992Z,0.73
2023-01-28T00:18:37.465Z,1.60
2023-01-28T00:21:10.882Z,0.75
2023-01-28T00:23:39.494Z,0.85
2023-01-28T00:26:12.443Z,1.77
2023-01-28T00:28:39.606Z,0.60
2023-01-28T00:31:07.965Z,0.55
2023-01-28T00:33:35.010Z,0.77
2023-01-28T00:36:02.947Z,1.73
2023-01-28T00:38:30.340Z,1.23
2023-01-28T00:41:06.530Z,1.05
2023-01-28T00:43:33.352Z,1.17
2023-01-28T00:46:00.230Z,1.20
2023-01-28T00:48:27.170Z,1.55
2023-01-28T00:50:54.007Z,1.25
2023-01-28T00:53:20.794Z,1.80
2023-01-28T00:55:47.575Z,1.20
2023-01-28T00:58:14.392Z,1.52
2023-01-28T01:00:41.267Z,1.25
2023-01-28T01:03:08.147Z,1.27
2023-01-28T01:05:34.969Z,1.10
2023-01-28T01:08:01.902Z,2.15
2023-01-28T01:10:28.880Z,1.17
2023-01-28T01:12:58.137Z,1.20
2023-01-28T01:15:25.069Z,1.20
2023-01-28T01:17:52.046Z,2.25
2023-01-28T01:20:26.014Z,1.30
2023-01-28T01:22:53.195Z,1.00
2023-01-28T01:25:20.471Z,1.25
2023-01-28T01:27:49.848Z,0.80
2023-01-28T01:30:17.032Z,1.25
2023-01-28T01:32:43.856Z,1.20
2023-01-28T01:35:11.128Z,1.13
2023-01-28T01:37:38.180Z,2.08
2023-01-28T01:40:05.846Z,1.75
2023-01-28T01:42:33.793Z,1.08
2023-01-28T01:45:00.665Z,1.17
2023-01-28T01:47:48.571Z,1.45
2023-01-28T01:50:35.087Z,1.98
2023-01-28T01:53:16.067Z,1.17
2023-01-28T01:55:47.578Z,1.73
2023-01-28T01:58:18.634Z,1.40
2023-01-28T02:00:46.756Z,5.35
2023-01-28T02:03:14.917Z,2.13
2023-01-28T02:05:41.801Z,1.13
2023-01-28T02:08:25.595Z,2.38
2023-01-28T02:11:05.056Z,1.67
2023-01-28T02:13:38.040Z,1.20
2023-01-28T02:16:07.006Z,2.30
2023-01-28T02:18:34.228Z,1.35
2023-01-28T02:21:24.135Z,1.10
2023-01-28T02:24:01.888Z,2.05
2023-01-28T02:26:43.857Z,1.00
2023-01-28T02:29:31.249Z,0.90
2023-01-28T02:32:33.743Z,1.70
2023-01-28T02:35:35.024Z,1.33
2023-01-28T02:38:21.451Z,0.80
2023-01-28T02:41:03.090Z,1.05
2023-01-28T02:43:38.923Z,0.95
2023-01-28T02:46:39.427Z,0.60
2023-01-28T02:49:30.829Z,0.77
2023-01-28T02:52:13.049Z,0.68
2023-01-28T02:54:46.656Z,0.95
2023-01-28T02:57:33.903Z,0.60
2023-01-28T03:00:08.449Z,0.70
2023-01-28T03:02:54.380Z,0.73
2023-01-28T03:05:25.602Z,0.70
2023-01-28T03:07:52.970Z,0.70
2023-01-28T03:10:22.755Z,1.15
2023-01-28T03:13:13.290Z,1.10
2023-01-28T03:16:08.661Z,1.00
2023-01-28T03:19:11.772Z,0.90
2023-01-28T03:22:02.531Z,1.60
2023-01-28T03:24:52.701Z,1.40
2023-01-28T03:28:05.721Z,1.45
2023-01-28T03:31:12.250Z,0.90
2023-01-28T03:33:58.957Z,0.88
2023-01-28T03:36:44.837Z,1.40
2023-01-28T03:39:11.684Z,1.38
2023-01-28T03:41:38.557Z,1.85
2023-01-28T03:44:24.230Z,1.05
2023-01-28T03:46:50.982Z,1.58
2023-01-28T03:49:18.073Z,1.10
2023-01-28T03:51:46.335Z,0.80
2023-01-28T03:54:13.533Z,1.42
2023-01-28T03:56:40.516Z,1.00
2023-01-28T03:59:08.002Z,1.35
2023-01-28T04:01:35.013Z,1.42
2023-01-28T04:04:02.192Z,1.30
2023-01-28T04:06:29.087Z,0.98
2023-01-28T04:08:59.352Z,1.70
2023-01-28T04:11:27.251Z,1.27
2023-01-28T04:13:54.126Z,0.98
2023-01-28T04:16:21.036Z,1.63
2023-01-28T04:18:47.907Z,0.88
2023-01-28T04:21:14.821Z,0.70
2023-01-28T04:23:41.730Z,0.70
2023-01-28T04:26:08.568Z,1.25
2023-01-28T04:28:35.410Z,0.50
2023-01-28T04:31:02.366Z,0.90
2023-01-28T04:33:29.229Z,1.00
2023-01-28T04:35:56.096Z,1.67
2023-01-28T04:38:23.163Z,1.02
2023-01-28T04:40:54.076Z,2.22
2023-01-28T04:43:20.960Z,0.90
2023-01-28T04:45:48.507Z,1.20
2023-01-28T04:48:16.941Z,0.95
2023-01-28T04:50:44.472Z,0.80
2023-01-28T04:53:11.411Z,0.82
2023-01-28T04:55:38.348Z,1.30
2023-01-28T04:58:05.107Z,0.47
2023-01-28T05:00:31.852Z,0.75
2023-01-28T05:02:58.668Z,0.40
2023-01-28T05:05:25.468Z,0.40
2023-01-28T05:07:57.073Z,0.70
2023-01-28T05:10:24.624Z,0.55
2023-01-28T05:12:51.429Z,0.57
2023-01-28T05:15:19.958Z,0.40
2023-01-28T05:17:47.507Z,0.40
2023-01-28T05:20:14.913Z,0.20
2023-01-28T05:22:42.513Z,0.38
2023-01-28T05:25:09.819Z,0.40
2023-01-28T05:27:36.587Z,0.30
2023-01-28T05:30:04.001Z,0.60
2023-01-28T05:32:30.819Z,0.55
2023-01-28T05:34:57.675Z,0.57
2023-01-28T05:37:24.431Z,0.52
2023-01-28T05:39:51.284Z,0.40
2023-01-28T05:42:20.793Z,0.55
2023-01-28T05:44:47.652Z,0.30
2023-01-28T05:47:14.398Z,0.50
2023-01-28T05:49:41.150Z,0.90
2023-01-28T05:52:07.902Z,1.15
2023-01-28T05:54:34.725Z,3.53
2023-01-28T05:57:01.590Z,3.83
2023-01-28T05:59:28.444Z,2.85
2023-01-28T06:01:55.210Z,1.42
2023-01-28T06:04:22.002Z,1.85
2023-01-28T06:06:48.766Z,1.75
2023-01-28T06:09:15.648Z,1.48
2023-01-28T06:11:42.466Z,0.90
2023-01-28T06:14:09.301Z,2.50
2023-01-28T06:16:36.433Z,1.15
2023-01-28T06:19:03.824Z,1.77
2023-01-28T06:21:30.678Z,1.13
2023-01-28T06:23:57.504Z,1.15
2023-01-28T06:26:24.490Z,1.42
2023-01-28T06:28:51.273Z,1.00
2023-01-28T06:31:18.478Z,1.10
2023-01-28T06:33:45.280Z,1.90
2023-01-28T06:36:12.198Z,1.45
2023-01-28T06:38:39.043Z,2.15
2023-01-28T06:41:05.801Z,0.95
2023-01-28T06:43:32.597Z,0.82
2023-01-28T06:45:59.923Z,1.08
2023-01-28T06:48:28.340Z,1.88
2023-01-28T06:50:55.118Z,1.00
2023-01-28T06:53:22.276Z,1.05
2023-01-28T06:55:49.291Z,1.52
2023-01-28T06:58:16.246Z,1.25
2023-01-28T07:00:43.050Z,1.23
2023-01-28T07:03:10.033Z,1.02
2023-01-28T07:05:36.843Z,2.33
2023-01-28T07:08:03.699Z,1.33
2023-01-28T07:10:30.620Z,1.83
2023-01-28T07:12:57.532Z,2.50
2023-01-28T07:15:24.254Z,1.67
2023-01-28T07:17:51.225Z,1.60
2023-01-28T07:20:18.426Z,1.60
2023-01-28T07:22:45.745Z,1.67
2023-01-28T07:25:13.858Z,1.25
2023-01-28T07:27:45.759Z,3.17
2023-01-28T07:30:12.985Z,1.05
2023-01-28T07:32:40.031Z,1.25
2023-01-28T07:35:07.435Z,1.13
2023-01-28T07:37:34.381Z,2.13
2023-01-28T07:40:01.211Z,1.27
2023-01-28T07:42:28.014Z,1.33
2023-01-28T07:44:54.901Z,1.50
2023-01-28T07:47:21.810Z,1.20
2023-01-28T07:49:48.681Z,1.92
2023-01-28T07:52:15.525Z,1.70
2023-01-28T07:54:42.331Z,1.15
2023-01-28T07:57:12.453Z,1.17
2023-01-28T07:59:39.209Z,1.35
2023-01-28T08:02:06.203Z,1.13
2023-01-28T08:04:33.085Z,1.10
2023-01-28T08:06:59.999Z,1.83
2023-01-28T08:09:26.945Z,1.25
2023-01-28T08:11:53.716Z,1.58
2023-01-28T08:14:20.639Z,2.05
2023-01-28T08:16:48.235Z,1.48
2023-01-28T08:19:15.466Z,1.85
2023-01-28T08:21:42.238Z,3.03
2023-01-28T08:24:09.168Z,3.58
2023-01-28T08:26:36.216Z,1.52
2023-01-28T08:29:02.981Z,2.08
2023-01-28T08:31:29.820Z,1.35
2023-01-28T08:33:56.613Z,1.73
2023-01-28T08:36:23.474Z,2.30
2023-01-28T08:38:56.994Z,2.42
2023-01-28T08:41:24.435Z,1.40
2023-01-28T08:43:51.287Z,2.25
2023-01-28T08:46:18.087Z,1.95
2023-01-28T08:48:44.965Z,1.75
2023-01-28T08:51:11.842Z,3.58
2023-01-28T08:53:38.880Z,2.33
2023-01-28T08:56:06.079Z,1.55
2023-01-28T08:58:32.894Z,1.85
2023-01-28T09:01:04.891Z,1.35
2023-01-28T09:03:31.713Z,1.70
2023-01-28T09:06:02.601Z,1.95
2023-01-28T09:08:29.774Z,1.58
2023-01-28T09:10:57.604Z,1.20
2023-01-28T09:13:24.702Z,2.17
2023-01-28T09:15:51.718Z,2.03
2023-01-28T09:18:19.022Z,2.22
2023-01-28T09:20:45.989Z,1.90
2023-01-28T09:23:13.430Z,1.33
2023-01-28T09:25:40.484Z,2.55
2023-01-28T09:28:07.699Z,1.85
2023-01-28T09:30:37.056Z,2.45
2023-01-28T09:33:04.841Z,2.25
2023-01-28T09:35:32.968Z,1.73
2023-01-28T09:38:00.283Z,3.67
2023-01-28T09:40:35.773Z,2.10
2023-01-28T09:43:21.145Z,2.15
2023-01-28T09:45:50.673Z,1.50
2023-01-28T09:48:42.659Z,2.10
2023-01-28T09:51:38.692Z,1.67
2023-01-28T09:54:27.099Z,2.10
2023-01-28T09:57:07.775Z,2.60
2023-01-28T09:59:36.326Z,2.17
2023-01-28T10:02:21.220Z,1.90
2023-01-28T10:05:04.671Z,3.00
2023-01-28T10:07:52.757Z,1.60
2023-01-28T10:10:30.453Z,1.50
2023-01-28T10:13:38.011Z,2.08
2023-01-28T10:16:31.435Z,1.67
2023-01-28T10:19:17.167Z,1.30
2023-01-28T10:21:53.621Z,2.58
2023-01-28T10:24:31.852Z,1.85
2023-01-28T10:26:58.866Z,1.75
2023-01-28T10:29:30.131Z,1.83
2023-01-28T10:32:20.945Z,2.47
2023-01-28T10:34:47.854Z,3.28
2023-01-28T10:37:16.280Z,3.15
2023-01-28T10:39:44.579Z,2.95
2023-01-28T10:42:25.963Z,3.10
2023-01-28T10:44:53.275Z,1.90
2023-01-28T10:47:41.288Z,2.88
2023-01-28T10:50:17.793Z,1.50
2023-01-28T10:53:03.090Z,1.23
2023-01-28T10:55:48.024Z,2.63
2023-01-28T10:58:20.162Z,1.10
2023-01-28T11:00:52.286Z,2.20
2023-01-28T11:03:20.577Z,0.90
2023-01-28T11:05:57.668Z,0.95
2023-01-28T11:08:26.923Z,1.00
2023-01-28T11:10:55.588Z,2.05
2023-01-28T11:13:27.682Z,1.05
2023-01-28T11:16:04.634Z,1.63
2023-01-28T11:18:36.445Z,1.45
2023-01-28T11:21:06.596Z,1.15
2023-01-28T11:23:41.531Z,1.95
2023-01-28T11:26:14.238Z,2.25
2023-01-28T11:28:42.879Z,1.95
2023-01-28T11:31:14.437Z,1.73
2023-01-28T11:34:00.526Z,1.63
2023-01-28T11:36:31.997Z,1.30
2023-01-28T11:39:01.124Z,2.13
2023-01-28T11:41:32.372Z,1.40
2023-01-28T11:44:05.649Z,1.73
2023-01-28T11:46:44.349Z,1.40
2023-01-28T11:49:23.862Z,2.25
2023-01-28T11:52:21.541Z,1.40
2023-01-28T11:55:03.677Z,1.40
2023-01-28T11:57:30.385Z,1.48
2023-01-28T12:00:12.391Z,1.10
2023-01-28T12:02:58.834Z,1.58
2023-01-28T12:05:28.389Z,1.33
2023-01-28T12:08:18.855Z,1.95
2023-01-28T12:11:12.646Z,0.95
2023-01-28T12:14:10.408Z,1.70
2023-01-28T12:16:55.334Z,1.20
2023-01-28T12:19:31.355Z,1.60
2023-01-28T12:22:01.184Z,2.78
2023-01-28T12:24:45.995Z,1.65
2023-01-28T12:27:41.645Z,1.75
2023-01-28T12:30:32.850Z,1.90
2023-01-28T12:33:35.337Z,2.28
2023-01-28T12:36:22.835Z,1.42
2023-01-28T12:39:13.899Z,1.23
2023-01-28T12:41:47.608Z,1.38
2023-01-28T12:44:32.058Z,1.10
2023-01-28T12:47:07.665Z,1.33
2023-01-28T12:49:43.584Z,1.05
2023-01-28T12:52:24.815Z,1.33
2023-01-28T12:55:12.034Z,1.17
2023-01-28T12:57:39.489Z,1.00
2023-01-28T13:00:34.274Z,1.25
2023-01-28T13:03:25.120Z,0.90
2023-01-28T13:05:56.972Z,2.38
2023-01-28T13:08:25.850Z,1.58
2023-01-28T13:10:55.055Z,1.23
2023-01-28T13:13:32.463Z,1.65
2023-01-28T13:16:00.768Z,2.50
2023-01-28T13:18:30.405Z,1.73
2023-01-28T13:20:57.317Z,1.77
2023-01-28T13:23:42.049Z,1.63
2023-01-28T13:26:29.312Z,1.33
2023-01-28T13:29:14.268Z,1.33
2023-01-28T13:31:44.146Z,1.40
2023-01-28T13:34:26.641Z,2.20
2023-01-28T13:36:54.245Z,1.70
2023-01-28T13:39:26.594Z,1.45
2023-01-28T13:42:20.150Z,1.35
2023-01-28T13:44:46.882Z,1.52
2023-01-28T13:47:21.781Z,1.58
2023-01-28T13:49:54.982Z,1.02
2023-01-28T13:52:29.438Z,1.48
2023-01-28T13:55:02.063Z,1.38
2023-01-28T13:57:28.748Z,2.33
2023-01-28T14:00:14.170Z,1.77
2023-01-28T14:03:08.611Z,1.30
2023-01-28T14:05:54.474Z,2.13
2023-01-28T14:08:24.425Z,1.30
2023-01-28T14:11:18.937Z,1.88
2023-01-28T14:14:13.126Z,1.27
2023-01-28T14:16:57.076Z,1.50
2023-01-28T14:19:36.877Z,1.67
2023-01-28T14:22:08.681Z,1.35
2023-01-28T14:24:38.327Z,1.30
2023-01-28T14:27:37.112Z,1.30
2023-01-28T14:30:18.768Z,1.65
2023-01-28T14:32:52.322Z,1.50
2023-01-28T14:35:31.177Z,0.80
2023-01-28T14:38:00.355Z,0.93
2023-01-28T14:40:29.195Z,1.05
2023-01-28T14:42:58.277Z,1.65
2023-01-28T14:45:43.645Z,1.58
2023-01-28T14:48:19.576Z,1.00
2023-01-28T14:50:49.718Z,0.88
2023-01-28T14:53:53.665Z,0.80
2023-01-28T14:56:20.438Z,1.25
2023-01-28T14:58:55.066Z,1.23
2023-01-28T15:01:27.592Z,1.58
2023-01-28T15:03:55.016Z,1.48
2023-01-28T15:06:31.572Z,2.25
2023-01-28T15:09:09.868Z,2.83
2023-01-28T15:11:44.347Z,3.33
2023-01-28T15:14:21.298Z,2.05
2023-01-28T15:16:49.573Z,1.58
2023-01-28T15:19:17.850Z,1.58
2023-01-28T15:21:46.235Z,1.55
2023-01-28T15:24:17.154Z,1.25
2023-01-28T15:26:47.644Z,0.82
2023-01-28T15:29:36.310Z,1.17
2023-01-28T15:32:05.098Z,1.88
2023-01-28T15:34:32.635Z,2.28
2023-01-28T15:37:02.201Z,2.15
2023-01-28T15:39:30.148Z,1.85
2023-01-28T15:42:02.830Z,2.28
2023-01-28T15:44:53.761Z,1.58
2023-01-28T15:47:30.718Z,1.17
2023-01-28T15:50:02.490Z,1.80
2023-01-28T15:52:33.634Z,1.65
2023-01-28T15:55:00.522Z,0.70
2023-01-28T15:57:31.236Z,1.10
2023-01-28T16:00:07.065Z,1.58
2023-01-28T16:02:34.433Z,1.95
2023-01-28T16:05:10.650Z,0.98
2023-01-28T16:07:45.859Z,1.42
2023-01-28T16:10:25.902Z,1.45
2023-01-28T16:13:14.197Z,1.25
2023-01-28T16:15:46.555Z,2.20
2023-01-28T16:18:43.344Z,1.20
2023-01-28T16:21:15.795Z,0.93
2023-01-28T16:23:52.093Z,0.70
2023-01-28T16:26:24.571Z,2.58
2023-01-28T16:28:51.839Z,0.80
2023-01-28T16:31:20.110Z,1.85
2023-01-28T16:33:47.215Z,1.27
2023-01-28T16:36:16.379Z,7.97
2023-01-28T16:38:43.331Z,6.60
2023-01-28T16:41:27.071Z,5.07
2023-01-28T16:43:54.119Z,5.43
2023-01-28T16:46:21.210Z,3.90
2023-01-28T16:48:48.115Z,2.78
2023-01-28T16:51:18.171Z,2.25
2023-01-28T16:53:47.496Z,1.35
2023-01-28T16:56:44.149Z,1.95
2023-01-28T16:59:11.556Z,1.10
2023-01-28T17:01:38.537Z,0.60
2023-01-28T17:04:11.501Z,1.40
2023-01-28T17:06:43.497Z,0.82
2023-01-28T17:09:11.967Z,1.08
2023-01-28T17:11:40.694Z,1.02
2023-01-28T17:14:08.117Z,1.73
2023-01-28T17:16:35.055Z,2.63
2023-01-28T17:19:02.009Z,1.60
2023-01-28T17:21:28.775Z,1.52
2023-01-28T17:23:57.616Z,2.00
2023-01-28T17:26:25.097Z,2.95
2023-01-28T17:28:53.633Z,2.83
2023-01-28T17:31:21.086Z,2.22
2023-01-28T17:33:48.219Z,1.95
2023-01-28T17:36:14.959Z,1.70
2023-01-28T17:38:44.575Z,1.60
2023-01-28T17:41:12.914Z,2.35
2023-01-28T17:43:39.773Z,1.45
2023-01-28T17:46:16.699Z,0.90
2023-01-28T17:48:46.275Z,1.48
2023-01-28T17:51:14.506Z,1.00
2023-01-28T17:53:45.866Z,1.05
2023-01-28T17:56:21.008Z,1.00
2023-01-28T17:58:56.345Z,1.20
2023-01-28T18:01:24.962Z,0.77
2023-01-28T18:03:52.338Z,1.40
2023-01-28T18:06:19.203Z,1.23
2023-01-28T18:08:46.084Z,1.88
2023-01-28T18:11:15.306Z,4.57
2023-01-28T18:13:43.048Z,6.22
2023-01-28T18:16:15.089Z,5.80
2023-01-28T18:18:42.716Z,5.80
2023-01-28T18:21:42.894Z,2.80
2023-01-28T18:24:13.628Z,3.47
2023-01-28T18:26:40.571Z,2.83
2023-01-28T18:29:07.342Z,1.95
2023-01-28T18:31:34.202Z,1.88
2023-01-28T18:34:02.347Z,1.58
2023-01-28T18:36:29.110Z,1.48
2023-01-28T18:38:55.919Z,1.30
2023-01-28T18:41:22.697Z,2.40
2023-01-28T18:43:49.521Z,1.52
2023-01-28T18:46:18.319Z,2.70
2023-01-28T18:48:45.113Z,2.92
2023-01-28T18:51:28.756Z,1.10
2023-01-28T18:53:57.953Z,4.18
2023-01-28T18:56:25.322Z,7.03
2023-01-28T18:59:00.347Z,5.35
2023-01-28T19:01:29.390Z,3.90
2023-01-28T19:03:57.693Z,3.25
2023-01-28T19:06:26.011Z,2.15
2023-01-28T19:08:58.231Z,4.07
2023-01-28T19:11:27.319Z,3.53
2023-01-28T19:13:54.387Z,3.20
2023-01-28T19:16:22.064Z,2.78
2023-01-28T19:18:53.807Z,1.98
2023-01-28T19:21:23.280Z,1.90
2023-01-28T19:24:14.087Z,1.85
2023-01-28T19:26:43.985Z,3.03
2023-01-28T19:29:16.445Z,2.83
2023-01-28T19:31:44.507Z,2.92
2023-01-28T19:34:11.839Z,2.03
2023-01-28T19:36:39.292Z,3.55
2023-01-28T19:39:08.481Z,3.13
2023-01-28T19:41:36.716Z,2.17
2023-01-28T19:44:05.035Z,2.10
2023-01-28T19:46:32.622Z,2.95
2023-01-28T19:48:59.540Z,2.00
2023-01-28T19:51:26.474Z,2.00
2023-01-28T19:53:55.206Z,1.73
2023-01-28T19:56:24.063Z,1.52
2023-01-28T19:58:52.819Z,1.45
2023-01-28T20:01:25.785Z,2.03
2023-01-28T20:03:58.214Z,1.30
2023-01-28T20:06:27.602Z,1.38
2023-01-28T20:08:56.603Z,2.15
2023-01-28T20:11:23.910Z,2.80
2023-01-28T20:13:51.844Z,1.92
2023-01-28T20:16:27.270Z,2.38
2023-01-28T20:18:56.698Z,3.10
2023-01-28T20:21:24.401Z,1.92
2023-01-28T20:23:53.804Z,1.30
2023-01-28T20:26:23.266Z,2.10
2023-01-28T20:28:51.205Z,2.25
2023-01-28T20:31:19.348Z,3.80
2023-01-28T20:33:46.406Z,1.88
2023-01-28T20:36:15.185Z,2.17
2023-01-28T20:38:44.241Z,1.30
2023-01-28T20:41:16.845Z,1.20
2023-01-28T20:43:44.954Z,1.73
2023-01-28T20:46:20.641Z,1.30
2023-01-28T20:48:48.264Z,1.80
2023-01-28T20:51:20.651Z,1.83
2023-01-28T20:53:48.782Z,1.70
2023-01-28T20:56:19.937Z,2.30
2023-01-28T20:58:49.389Z,1.63
2023-01-28T21:01:21.439Z,2.17
2023-01-28T21:03:49.010Z,1.75
2023-01-28T21:06:16.350Z,1.77
2023-01-28T21:08:44.203Z,1.80
2023-01-28T21:11:11.828Z,1.50
2023-01-28T21:13:38.841Z,1.30
2023-01-28T21:16:06.510Z,1.70
2023-01-28T21:18:33.409Z,2.67
2023-01-28T21:21:18.823Z,3.33
2023-01-28T21:23:45.684Z,3.13
2023-01-28T21:26:12.969Z,1.20
2023-01-28T21:28:39.827Z,4.00
2023-01-28T21:31:18.040Z,2.85
2023-01-28T21:33:49.203Z,2.30
2023-01-28T21:36:17.461Z,2.22
2023-01-28T21:38:45.155Z,2.70
2023-01-28T21:41:12.233Z,3.90
2023-01-28T21:43:39.388Z,5.43
2023-01-28T21:46:06.240Z,3.53
2023-01-28T21:48:33.163Z,2.95
2023-01-28T21:51:26.165Z,3.88
2023-01-28T21:53:53.225Z,2.90
2023-01-28T21:56:20.044Z,1.27
2023-01-28T21:59:05.481Z,1.70
2023-01-28T22:01:32.310Z,1.05
2023-01-28T22:03:59.357Z,2.03
2023-01-28T22:06:26.488Z,1.17
2023-01-28T22:08:53.456Z,1.00
2023-01-28T22:11:20.357Z,1.23
2023-01-28T22:13:47.957Z,0.45
2023-01-28T22:16:14.928Z,1.55
2023-01-28T22:18:41.712Z,0.73
2023-01-28T22:21:11.559Z,0.60
2023-01-28T22:23:38.578Z,0.43
2023-01-28T22:26:05.636Z,0.45
2023-01-28T22:28:32.423Z,0.50
2023-01-28T22:31:08.288Z,0.77
2023-01-28T22:33:35.830Z,1.00
2023-01-28T22:36:06.075Z,1.95
2023-01-28T22:38:33.166Z,2.33
2023-01-28T22:41:11.786Z,1.75
2023-01-28T22:43:38.691Z,2.15
2023-01-28T22:46:06.118Z,1.48
2023-01-28T22:48:35.921Z,2.20
2023-01-28T22:51:07.826Z,1.38
2023-01-28T22:53:34.895Z,3.85
2023-01-28T22:56:02.680Z,4.07
2023-01-28T22:58:31.536Z,4.32
2023-01-28T23:00:58.933Z,5.13
2023-01-28T23:03:26.158Z,5.90
2023-01-28T23:05:57.088Z,3.55
2023-01-28T23:08:23.850Z,2.45
2023-01-28T23:10:50.931Z,2.88
2023-01-28T23:13:22.099Z,3.15
2023-01-28T23:16:09.018Z,4.05
2023-01-28T23:18:55.035Z,1.90
2023-01-28T23:21:43.387Z,2.38
2023-01-28T23:24:21.412Z,2.85
2023-01-28T23:26:53.090Z,2.22
2023-01-28T23:29:23.875Z,1.98
2023-01-28T23:31:54.265Z,2.67
2023-01-28T23:34:22.673Z,1.63
2023-01-28T23:36:50.670Z,1.88
2023-01-28T23:39:18.414Z,1.50
2023-01-28T23:41:45.139Z,0.68
2023-01-28T23:44:11.969Z,1.10
2023-01-28T23:46:40.364Z,1.90
2023-01-28T23:49:16.679Z,0.75
2023-01-28T23:51:43.433Z,0.70
2023-01-28T23:54:16.654Z,0.80
2023-01-28T23:56:43.997Z,1.40
2023-01-28T23:59:17.037Z,1.27
